createdAt,value
2023-03-29T00:02:14.886Z,39.34
2023-03-29T00:04:42.024Z,39.41
2023-03-29T00:07:09.627Z,39.36
2023-03-29T00:09:36.708Z,39.70
2023-03-29T00:12:03.649Z,39.47
2023-03-29T00:14:31.200Z,39.69
2023-03-29T00:16:59.284Z,39.01
2023-03-29T00:19:26.765Z,39.00
2023-03-29T00:21:54.039Z,39.37
2023-03-29T00:24:24.138Z,39.26
2023-03-29T00:26:50.983Z,39.26
2023-03-29T00:29:18.008Z,39.13
2023-03-29T00:31:51.541Z,39.18
2023-03-29T00:34:18.448Z,39.19
2023-03-29T00:36:45.322Z,39.11
2023-03-29T00:39:12.225Z,39.78
2023-03-29T00:41:39.072Z,39.51
2023-03-29T00:44:05.952Z,39.09
2023-03-29T00:46:35.217Z,39.48
2023-03-29T00:49:09.167Z,39.18
2023-03-29T00:51:38.524Z,39.81
2023-03-29T00:54:09.752Z,39.10
2023-03-29T00:56:40.287Z,39.71
2023-03-29T00:59:13.889Z,39.37
2023-03-29T01:01:48.621Z,39.70
2023-03-29T01:04:22.538Z,39.07
2023-03-29T01:07:13.842Z,39.54
2023-03-29T01:09:43.998Z,39.40
2023-03-29T01:12:17.769Z,39.32
2023-03-29T01:14:59.527Z,39.09
2023-03-29T01:17:26.461Z,39.34
2023-03-29T01:20:02.432Z,39.13
2023-03-29T01:22:58.696Z,39.43
2023-03-29T01:25:53.708Z,39.55
2023-03-29T01:28:28.698Z,39.46
2023-03-29T01:31:03.959Z,39.59
2023-03-29T01:33:38.834Z,39.29
2023-03-29T01:36:19.399Z,39.39
2023-03-29T01:38:53.130Z,39.52
2023-03-29T01:41:20.494Z,39.61
2023-03-29T01:43:56.998Z,39.65
2023-03-29T01:46:35.686Z,40.00
2023-03-29T01:49:12.661Z,39.91
2023-03-29T01:51:46.478Z,39.57
2023-03-29T01:54:20.275Z,39.25
2023-03-29T01:56:50.327Z,39.63
2023-03-29T01:59:23.285Z,39.62
2023-03-29T02:01:54.715Z,39.63
2023-03-29T02:04:29.489Z,39.28
2023-03-29T02:06:59.749Z,39.62
2023-03-29T02:09:27.714Z,39.70
2023-03-29T02:11:59.825Z,39.90
2023-03-29T02:14:27.278Z,39.73
2023-03-29T02:16:54.196Z,39.49
2023-03-29T02:19:24.283Z,39.47
2023-03-29T02:22:09.886Z,39.64
2023-03-29T02:24:39.352Z,39.84
2023-03-29T02:27:06.578Z,40.07
2023-03-29T02:29:33.863Z,39.69
2023-03-29T02:32:11.668Z,39.39
2023-03-29T02:34:51.245Z,39.72
2023-03-29T02:37:20.442Z,39.61
2023-03-29T02:39:50.149Z,39.62
2023-03-29T02:42:20.684Z,39.74
2023-03-29T02:44:52.262Z,39.82
2023-03-29T02:47:28.909Z,39.34
2023-03-29T02:49:56.022Z,39.86
2023-03-29T02:52:28.586Z,39.66
2023-03-29T02:54:56.489Z,39.79
2023-03-29T02:57:26.981Z,39.75
2023-03-29T02:59:57.242Z,39.63
2023-03-29T03:02:28.113Z,39.74
2023-03-29T03:04:55.283Z,39.89
2023-03-29T03:07:22.191Z,39.82
2023-03-29T03:09:49.302Z,39.56
2023-03-29T03:12:16.294Z,39.57
2023-03-29T03:14:43.518Z,39.52
2023-03-29T03:17:10.529Z,39.41
2023-03-29T03:19:37.701Z,40.02
2023-03-29T03:22:06.301Z,39.70
2023-03-29T03:24:33.126Z,39.42
2023-03-29T03:27:00.000Z,39.39
2023-03-29T03:29:28.583Z,39.40
2023-03-29T03:31:55.910Z,39.53
2023-03-29T03:34:23.292Z,39.45
2023-03-29T03:36:50.821Z,39.80
2023-03-29T03:39:17.828Z,40.10
2023-03-29T03:41:44.819Z,39.98
2023-03-29T03:44:12.269Z,40.01
2023-03-29T03:46:39.528Z,39.97
2023-03-29T03:49:06.535Z,40.24
2023-03-29T03:51:33.497Z,39.62
2023-03-29T03:54:00.658Z,39.74
2023-03-29T03:56:30.141Z,40.17
2023-03-29T03:58:57.638Z,39.73
2023-03-29T04:01:24.706Z,40.33
2023-03-29T04:03:51.606Z,39.50
2023-03-29T04:06:18.891Z,39.78
2023-03-29T04:08:46.024Z,40.23
2023-03-29T04:11:13.043Z,40.18
2023-03-29T04:13:40.179Z,40.18
2023-03-29T04:16:07.800Z,40.06
2023-03-29T04:18:34.803Z,40.29
2023-03-29T04:21:02.362Z,39.89
2023-03-29T04:23:29.519Z,39.58
2023-03-29T04:25:56.988Z,39.53
2023-03-29T04:28:24.023Z,40.36
2023-03-29T04:30:51.054Z,39.64
2023-03-29T04:33:18.142Z,39.73
2023-03-29T04:35:45.121Z,40.12
2023-03-29T04:38:12.134Z,40.27
2023-03-29T04:40:39.059Z,39.67
2023-03-29T04:43:06.542Z,39.74
2023-03-29T04:45:33.584Z,40.04
2023-03-29T04:48:00.535Z,40.25
2023-03-29T04:50:27.823Z,39.77
2023-03-29T04:52:54.858Z,40.03
2023-03-29T04:55:21.785Z,40.32
2023-03-29T04:57:49.051Z,39.84
2023-03-29T05:00:17.353Z,40.10
2023-03-29T05:02:48.102Z,40.04
2023-03-29T05:05:15.532Z,40.05
2023-03-29T05:07:42.435Z,39.72
2023-03-29T05:10:10.030Z,39.84
2023-03-29T05:12:37.574Z,40.01
2023-03-29T05:15:05.550Z,40.36
2023-03-29T05:17:32.705Z,39.95
2023-03-29T05:19:59.661Z,40.32
2023-03-29T05:22:26.961Z,40.20
2023-03-29T05:24:54.264Z,40.27
2023-03-29T05:27:24.197Z,39.67
2023-03-29T05:29:51.180Z,40.28
2023-03-29T05:32:18.011Z,40.33
2023-03-29T05:34:45.424Z,40.11
2023-03-29T05:37:13.597Z,39.91
2023-03-29T05:39:40.384Z,39.94
2023-03-29T05:42:07.219Z,39.96
2023-03-29T05:44:34.482Z,39.91
2023-03-29T05:47:01.656Z,39.65
2023-03-29T05:49:28.464Z,39.99
2023-03-29T05:51:57.666Z,39.91
2023-03-29T05:54:25.426Z,40.13
2023-03-29T05:56:52.570Z,39.63
2023-03-29T05:59:28.902Z,39.77
2023-03-29T06:02:18.021Z,39.61
2023-03-29T06:04:45.029Z,39.69
2023-03-29T06:07:12.822Z,40.04
2023-03-29T06:09:40.070Z,39.95
2023-03-29T06:12:07.787Z,39.59
2023-03-29T06:14:34.780Z,40.30
2023-03-29T06:17:02.113Z,39.88
2023-03-29T06:19:29.516Z,39.69
2023-03-29T06:21:56.530Z,40.11
2023-03-29T06:24:29.587Z,39.87
2023-03-29T06:26:56.712Z,40.31
2023-03-29T06:29:23.681Z,39.77
2023-03-29T06:31:51.007Z,39.69
2023-03-29T06:34:17.977Z,40.27
2023-03-29T06:36:46.122Z,40.24
2023-03-29T06:39:13.331Z,39.96
2023-03-29T06:41:40.220Z,40.05
2023-03-29T06:44:07.106Z,40.22
2023-03-29T06:46:34.429Z,39.63
2023-03-29T06:49:01.762Z,39.93
2023-03-29T06:51:29.382Z,40.35
2023-03-29T06:53:56.272Z,39.76
2023-03-29T06:56:24.075Z,39.69
2023-03-29T06:58:51.745Z,39.87
2023-03-29T07:01:18.795Z,40.15
2023-03-29T07:03:46.791Z,40.10
2023-03-29T07:06:15.230Z,39.99
2023-03-29T07:08:45.277Z,40.19
2023-03-29T07:11:14.472Z,39.86
2023-03-29T07:13:42.823Z,39.93
2023-03-29T07:16:14.234Z,39.88
2023-03-29T07:18:43.133Z,40.15
2023-03-29T07:21:12.655Z,39.67
2023-03-29T07:23:40.913Z,39.75
2023-03-29T07:26:08.402Z,39.42
2023-03-29T07:28:37.715Z,39.78
2023-03-29T07:31:11.188Z,39.93
2023-03-29T07:33:39.468Z,39.82
2023-03-29T07:36:07.141Z,39.38
2023-03-29T07:38:34.399Z,39.66
2023-03-29T07:41:06.981Z,40.02
2023-03-29T07:43:34.866Z,40.00
2023-03-29T07:46:04.200Z,39.68
2023-03-29T07:48:32.100Z,39.42
2023-03-29T07:50:59.125Z,39.63
2023-03-29T07:53:29.925Z,39.50
2023-03-29T07:55:57.387Z,39.95
2023-03-29T07:58:24.534Z,39.51
2023-03-29T08:00:51.464Z,39.31
2023-03-29T08:03:18.402Z,39.46
2023-03-29T08:05:45.485Z,39.61
2023-03-29T08:08:14.421Z,39.39
2023-03-29T08:10:44.968Z,39.74
2023-03-29T08:13:12.272Z,39.84
2023-03-29T08:15:40.305Z,39.13
2023-03-29T08:18:08.394Z,39.68
2023-03-29T08:20:35.641Z,39.91
2023-03-29T08:23:02.727Z,39.18
2023-03-29T08:25:30.608Z,39.22
2023-03-29T08:27:57.675Z,39.57
2023-03-29T08:30:24.589Z,39.55
2023-03-29T08:32:54.459Z,39.62
2023-03-29T08:35:22.722Z,39.55
2023-03-29T08:37:49.931Z,39.58
2023-03-29T08:40:21.274Z,39.84
2023-03-29T08:43:14.886Z,39.22
2023-03-29T08:46:07.950Z,39.38
2023-03-29T08:49:03.272Z,39.87
2023-03-29T08:51:38.406Z,39.74
2023-03-29T08:54:06.834Z,39.93
2023-03-29T08:56:37.672Z,39.52
2023-03-29T08:59:12.801Z,39.51
2023-03-29T09:01:40.166Z,39.13
2023-03-29T09:04:13.322Z,39.67
2023-03-29T09:06:41.082Z,39.40
2023-03-29T09:09:18.139Z,39.80
2023-03-29T09:12:22.790Z,39.12
2023-03-29T09:14:59.131Z,39.62
2023-03-29T09:17:44.307Z,39.83
2023-03-29T09:20:52.742Z,39.26
2023-03-29T09:23:38.781Z,39.62
2023-03-29T09:26:16.680Z,39.36
2023-03-29T09:28:59.964Z,39.72
2023-03-29T09:31:35.397Z,39.86
2023-03-29T09:34:11.021Z,40.11
2023-03-29T09:36:54.157Z,39.10
2023-03-29T09:39:22.975Z,39.22
2023-03-29T09:41:57.131Z,39.90
2023-03-29T09:44:31.610Z,39.58
2023-03-29T09:47:09.522Z,39.44
2023-03-29T09:49:40.548Z,39.35
2023-03-29T09:52:14.194Z,40.05
2023-03-29T09:54:41.582Z,39.39
2023-03-29T09:57:17.611Z,39.68
2023-03-29T09:59:47.018Z,39.45
2023-03-29T10:02:15.198Z,39.57
2023-03-29T10:04:43.202Z,40.15
2023-03-29T10:07:18.560Z,40.20
2023-03-29T10:09:46.863Z,39.82
2023-03-29T10:12:14.345Z,39.57
2023-03-29T10:14:45.544Z,40.11
2023-03-29T10:17:26.877Z,39.57
2023-03-29T10:19:58.599Z,39.58
2023-03-29T10:22:35.512Z,39.70
2023-03-29T10:25:02.664Z,39.94
2023-03-29T10:27:32.324Z,39.35
2023-03-29T10:30:01.375Z,40.04
2023-03-29T10:32:35.041Z,40.13
2023-03-29T10:35:08.518Z,40.21
2023-03-29T10:37:35.597Z,40.12
2023-03-29T10:40:02.668Z,39.83
2023-03-29T10:42:29.659Z,39.88
2023-03-29T10:45:00.456Z,39.84
2023-03-29T10:47:34.541Z,40.22
2023-03-29T10:50:02.071Z,39.95
2023-03-29T10:52:30.342Z,40.16
2023-03-29T10:54:59.460Z,40.21
2023-03-29T10:57:53.479Z,40.48
2023-03-29T11:00:27.300Z,39.96
2023-03-29T11:03:17.653Z,40.19
2023-03-29T11:05:53.019Z,40.16
2023-03-29T11:08:47.331Z,40.16
2023-03-29T11:11:44.492Z,40.66
2023-03-29T11:14:28.152Z,39.88
2023-03-29T11:17:16.759Z,40.18
2023-03-29T11:20:16.764Z,40.53
2023-03-29T11:22:53.497Z,39.90
2023-03-29T11:25:29.078Z,40.41
2023-03-29T11:28:17.452Z,39.98
2023-03-29T11:31:11.906Z,40.40
2023-03-29T11:33:58.075Z,40.14
2023-03-29T11:36:41.920Z,40.17
2023-03-29T11:39:14.911Z,39.74
2023-03-29T11:41:46.733Z,39.73
2023-03-29T11:44:31.987Z,39.39
2023-03-29T11:47:05.650Z,40.28
2023-03-29T11:49:49.467Z,40.01
2023-03-29T11:52:22.846Z,39.99
2023-03-29T11:54:56.594Z,40.32
2023-03-29T11:57:31.305Z,40.04
2023-03-29T12:00:07.441Z,38.94
2023-03-29T12:02:42.684Z,39.08
2023-03-29T12:05:23.313Z,39.30
2023-03-29T12:07:56.365Z,39.08
2023-03-29T12:10:31.568Z,39.39
2023-03-29T12:13:09.777Z,39.48
2023-03-29T12:15:44.337Z,39.00
2023-03-29T12:18:27.152Z,38.71
2023-03-29T12:21:00.157Z,38.82
2023-03-29T12:23:31.794Z,39.31
2023-03-29T12:26:04.622Z,39.23
2023-03-29T12:28:54.801Z,39.31
2023-03-29T12:31:33.183Z,38.81
2023-03-29T12:34:13.612Z,39.33
2023-03-29T12:36:48.842Z,39.13
2023-03-29T12:39:18.994Z,38.95
2023-03-29T12:41:49.266Z,39.10
2023-03-29T12:44:20.769Z,39.37
2023-03-29T12:46:52.750Z,39.67
2023-03-29T12:49:38.810Z,39.97
2023-03-29T12:52:23.985Z,39.82
2023-03-29T12:54:57.278Z,40.13
2023-03-29T12:58:04.914Z,40.26
2023-03-29T13:00:32.736Z,40.52
2023-03-29T13:03:03.933Z,40.05
2023-03-29T13:05:35.291Z,40.18
2023-03-29T13:08:22.377Z,39.26
2023-03-29T13:10:55.012Z,39.54
2023-03-29T13:13:28.277Z,39.34
2023-03-29T13:16:17.300Z,39.82
2023-03-29T13:19:15.508Z,39.82
2023-03-29T13:21:51.769Z,39.72
2023-03-29T13:24:32.272Z,39.72
2023-03-29T13:27:13.121Z,39.67
2023-03-29T13:30:06.654Z,39.95
2023-03-29T13:32:41.251Z,39.31
2023-03-29T13:35:35.609Z,39.76
2023-03-29T13:38:18.340Z,39.17
2023-03-29T13:40:45.042Z,39.07
2023-03-29T13:43:18.915Z,39.02
2023-03-29T13:45:52.292Z,39.58
2023-03-29T13:48:35.886Z,40.30
2023-03-29T13:51:19.883Z,40.20
2023-03-29T13:54:02.535Z,39.61
2023-03-29T13:56:37.455Z,39.96
2023-03-29T13:59:15.953Z,39.74
2023-03-29T14:01:45.962Z,39.62
2023-03-29T14:04:19.527Z,40.41
2023-03-29T14:06:52.947Z,40.05
2023-03-29T14:09:23.506Z,40.35
2023-03-29T14:11:51.816Z,40.44
2023-03-29T14:14:24.138Z,40.02
2023-03-29T14:16:51.366Z,39.83
2023-03-29T14:19:32.037Z,40.41
2023-03-29T14:22:03.181Z,39.63
2023-03-29T14:24:41.216Z,40.11
2023-03-29T14:27:12.195Z,40.31
2023-03-29T14:29:39.034Z,40.09
2023-03-29T14:32:11.626Z,39.64
2023-03-29T14:34:39.582Z,39.88
2023-03-29T14:37:09.262Z,39.43
2023-03-29T14:39:36.787Z,39.85
2023-03-29T14:42:03.812Z,40.16
2023-03-29T14:44:33.351Z,39.92
2023-03-29T14:47:03.132Z,39.77
2023-03-29T14:49:30.372Z,39.61
2023-03-29T14:51:57.431Z,38.86
2023-03-29T14:54:27.619Z,39.37
2023-03-29T14:56:54.853Z,38.73
2023-03-29T14:59:42.444Z,39.50
2023-03-29T15:02:27.278Z,40.00
2023-03-29T15:04:56.632Z,39.33
2023-03-29T15:07:25.730Z,40.04
2023-03-29T15:09:53.537Z,39.82
2023-03-29T15:12:20.645Z,39.88
2023-03-29T15:14:51.449Z,39.91
2023-03-29T15:17:24.027Z,40.40
2023-03-29T15:20:07.467Z,39.62
2023-03-29T15:22:34.659Z,40.30
2023-03-29T15:25:02.107Z,40.42
2023-03-29T15:27:41.860Z,40.31
2023-03-29T15:30:15.068Z,40.70
2023-03-29T15:32:42.110Z,40.72
2023-03-29T15:35:23.498Z,40.54
2023-03-29T15:37:52.632Z,39.85
2023-03-29T15:40:25.424Z,40.11
2023-03-29T15:42:54.520Z,40.11
2023-03-29T15:45:22.402Z,40.08
2023-03-29T15:47:49.332Z,40.46
2023-03-29T15:50:16.236Z,40.82
2023-03-29T15:52:43.077Z,40.81
2023-03-29T15:55:10.651Z,40.93
2023-03-29T15:57:39.856Z,40.62
2023-03-29T16:00:13.347Z,40.52
2023-03-29T16:02:41.202Z,40.56
2023-03-29T16:05:10.788Z,40.81
2023-03-29T16:07:37.744Z,40.58
2023-03-29T16:10:04.854Z,40.69
2023-03-29T16:12:31.648Z,41.03
2023-03-29T16:14:58.533Z,41.05
2023-03-29T16:17:25.265Z,40.70
2023-03-29T16:19:52.061Z,41.09
2023-03-29T16:22:18.755Z,41.03
2023-03-29T16:24:45.787Z,40.88
2023-03-29T16:27:12.581Z,40.95
2023-03-29T16:29:39.392Z,41.19
2023-03-29T16:32:07.266Z,41.62
2023-03-29T16:34:36.166Z,41.17
2023-03-29T16:37:03.046Z,41.54
2023-03-29T16:39:29.777Z,41.39
2023-03-29T16:41:56.723Z,40.87
2023-03-29T16:44:24.848Z,41.16
2023-03-29T16:46:54.439Z,41.52
2023-03-29T16:49:21.745Z,41.62
2023-03-29T16:51:48.818Z,41.31
2023-03-29T16:54:17.535Z,41.31
2023-03-29T16:56:47.355Z,41.13
2023-03-29T16:59:15.553Z,41.43
2023-03-29T17:01:43.107Z,41.47
2023-03-29T17:04:10.283Z,41.24
2023-03-29T17:06:37.266Z,41.28
2023-03-29T17:09:05.239Z,41.27
2023-03-29T17:11:32.172Z,41.66
2023-03-29T17:13:59.223Z,41.75
2023-03-29T17:16:26.286Z,41.31
2023-03-29T17:18:53.149Z,41.64
2023-03-29T17:21:20.507Z,42.17
2023-03-29T17:23:47.192Z,42.36
2023-03-29T17:26:14.365Z,42.33
2023-03-29T17:28:41.510Z,42.28
2023-03-29T17:31:08.359Z,42.59
2023-03-29T17:33:36.231Z,42.20
2023-03-29T17:36:05.131Z,42.45
2023-03-29T17:38:34.350Z,42.93
2023-03-29T17:41:01.701Z,42.71
2023-03-29T17:43:28.897Z,42.66
2023-03-29T17:45:55.773Z,42.89
2023-03-29T17:48:24.043Z,43.19
2023-03-29T17:50:50.845Z,43.11
2023-03-29T17:53:17.635Z,42.90
2023-03-29T17:55:44.590Z,43.36
2023-03-29T17:58:11.382Z,42.78
2023-03-29T18:00:38.148Z,43.20
2023-03-29T18:03:05.880Z,42.83
2023-03-29T18:05:33.799Z,42.64
2023-03-29T18:08:00.573Z,43.11
2023-03-29T18:10:27.469Z,42.57
2023-03-29T18:12:54.792Z,42.90
2023-03-29T18:15:21.583Z,42.58
2023-03-29T18:17:48.349Z,42.89
2023-03-29T18:20:16.360Z,42.64
2023-03-29T18:22:44.698Z,43.15
2023-03-29T18:25:11.505Z,42.69
2023-03-29T18:27:39.487Z,43.15
2023-03-29T18:30:09.048Z,43.02
2023-03-29T18:32:39.094Z,42.65
2023-03-29T18:35:06.509Z,43.20
2023-03-29T18:37:33.242Z,43.26
2023-03-29T18:40:01.098Z,43.03
2023-03-29T18:42:27.863Z,43.37
2023-03-29T18:44:54.594Z,43.10
2023-03-29T18:47:21.441Z,43.38
2023-03-29T18:49:48.235Z,43.32
2023-03-29T18:52:15.002Z,43.13
2023-03-29T18:54:42.006Z,42.84
2023-03-29T18:57:09.085Z,42.66
2023-03-29T18:59:38.787Z,42.91
2023-03-29T19:02:05.593Z,43.22
2023-03-29T19:04:32.385Z,42.46
2023-03-29T19:07:01.479Z,42.74
2023-03-29T19:09:28.519Z,42.18
2023-03-29T19:11:55.604Z,42.44
2023-03-29T19:14:26.317Z,42.12
2023-03-29T19:16:54.048Z,42.78
2023-03-29T19:19:22.204Z,43.06
2023-03-29T19:21:51.154Z,42.09
2023-03-29T19:24:18.705Z,41.78
2023-03-29T19:26:48.059Z,42.20
2023-03-29T19:29:15.228Z,42.30
2023-03-29T19:31:42.025Z,42.06
2023-03-29T19:34:11.103Z,42.42
2023-03-29T19:36:38.806Z,42.32
2023-03-29T19:39:06.339Z,42.37
2023-03-29T19:41:33.365Z,42.96
2023-03-29T19:44:00.166Z,42.51
2023-03-29T19:46:28.452Z,41.90
2023-03-29T19:48:56.334Z,42.18
2023-03-29T19:51:23.925Z,42.46
2023-03-29T19:53:50.719Z,42.56
2023-03-29T19:56:17.980Z,42.59
2023-03-29T19:58:44.794Z,42.91
2023-03-29T20:01:11.587Z,42.50
2023-03-29T20:03:39.494Z,42.77
2023-03-29T20:06:10.434Z,42.71
2023-03-29T20:08:39.045Z,42.52
2023-03-29T20:11:10.633Z,42.47
2023-03-29T20:13:39.331Z,42.91
2023-03-29T20:16:08.493Z,42.35
2023-03-29T20:18:35.307Z,42.83
2023-03-29T20:21:02.364Z,42.66
2023-03-29T20:23:30.121Z,42.53
2023-03-29T20:25:57.262Z,42.93
2023-03-29T20:28:24.743Z,43.31
2023-03-29T20:30:52.529Z,42.52
2023-03-29T20:33:20.864Z,42.55
2023-03-29T20:35:49.461Z,42.52
2023-03-29T20:38:16.341Z,42.35
2023-03-29T20:40:43.090Z,42.73
2023-03-29T20:43:13.715Z,42.69
2023-03-29T20:45:52.547Z,42.57
2023-03-29T20:48:22.410Z,43.00
2023-03-29T20:50:49.794Z,42.93
2023-03-29T20:53:16.589Z,42.51
2023-03-29T20:55:43.315Z,42.92
2023-03-29T20:58:10.188Z,42.83
2023-03-29T21:00:37.824Z,43.18
2023-03-29T21:03:04.839Z,42.23
2023-03-29T21:05:33.335Z,42.95
2023-03-29T21:08:00.167Z,42.73
2023-03-29T21:10:28.310Z,42.72
2023-03-29T21:13:00.440Z,43.15
2023-03-29T21:15:30.824Z,42.97
2023-03-29T21:17:58.282Z,42.67
2023-03-29T21:20:25.750Z,42.61
2023-03-29T21:22:52.598Z,42.81
2023-03-29T21:25:19.664Z,42.56
2023-03-29T21:27:46.471Z,43.07
2023-03-29T21:30:13.471Z,43.20
2023-03-29T21:32:40.659Z,42.89
2023-03-29T21:35:08.195Z,42.49
2023-03-29T21:37:34.932Z,43.06
2023-03-29T21:40:05.841Z,43.17
2023-03-29T21:42:35.985Z,42.74
2023-03-29T21:45:03.246Z,42.92
2023-03-29T21:47:30.032Z,42.74
2023-03-29T21:49:56.794Z,42.80
2023-03-29T21:52:23.561Z,42.97
2023-03-29T21:54:50.497Z,42.83
2023-03-29T21:57:17.348Z,42.85
2023-03-29T21:59:44.262Z,43.16
2023-03-29T22:02:11.423Z,43.30
2023-03-29T22:04:38.180Z,42.85
2023-03-29T22:07:06.114Z,42.63
2023-03-29T22:09:35.449Z,43.16
2023-03-29T22:12:02.995Z,43.24
2023-03-29T22:14:31.832Z,42.46
2023-03-29T22:16:58.629Z,43.18
2023-03-29T22:19:25.448Z,42.62
2023-03-29T22:21:52.275Z,42.77
2023-03-29T22:24:19.070Z,43.33
2023-03-29T22:26:46.133Z,42.82
2023-03-29T22:29:12.889Z,42.59
2023-03-29T22:31:39.735Z,42.90
2023-03-29T22:34:06.942Z,42.72
2023-03-29T22:36:33.911Z,43.13
2023-03-29T22:39:00.921Z,42.74
2023-03-29T22:41:28.400Z,43.16
2023-03-29T22:43:57.367Z,43.18
2023-03-29T22:46:24.770Z,42.51
2023-03-29T22:48:51.596Z,42.84
2023-03-29T22:51:19.001Z,42.72
2023-03-29T22:53:47.289Z,42.94
2023-03-29T22:56:16.013Z,42.86
2023-03-29T22:58:43.442Z,42.66
2023-03-29T23:01:10.338Z,42.88
2023-03-29T23:03:37.047Z,43.10
2023-03-29T23:06:03.994Z,43.14
2023-03-29T23:08:32.232Z,42.47
2023-03-29T23:10:59.781Z,42.52
2023-03-29T23:13:29.448Z,42.62
2023-03-29T23:15:59.349Z,42.83
2023-03-29T23:18:28.066Z,43.05
2023-03-29T23:20:56.696Z,43.20
2023-03-29T23:23:24.968Z,42.77
2023-03-29T23:25:53.129Z,43.14
2023-03-29T23:28:23.742Z,42.83
2023-03-29T23:31:00.612Z,42.62
2023-03-29T23:33:29.114Z,42.98
2023-03-29T23:35:55.889Z,43.04
2023-03-29T23:38:23.308Z,42.54
2023-03-29T23:40:59.283Z,42.50
2023-03-29T23:43:31.963Z,42.61
2023-03-29T23:46:01.243Z,43.19
2023-03-29T23:48:28.488Z,42.49
2023-03-29T23:50:58.547Z,42.50
2023-03-29T23:53:28.859Z,43.06
2023-03-29T23:56:01.570Z,42.76
2023-03-29T23:58:29.768Z,43.10
